滑走路面状態の提供について(国交省資料)
 
2024/04/25 08:30
RJCC 250830Z 18008KT 9999 -SHRA FEW005 BKN025 BKN040 11/08 Q1000 RMK 1ST005 5CU025 7CU040 A2954

2024/04/25 06:31
TAF RJCC 250505Z 2506/2612 16010KT 9999 FEW004 BKN015
               TEMPO 2506/2509 FEW002 BKN004
               TEMPO 2509/2512 FEW003 BKN006
               BECMG 2511/2513 34005KT
               BECMG 2516/2518 16010KT
               TEMPO 2518/2600 4000 BR FEW003 BKN006
UD: 12/14 17:32
カタカムナ ゴルフ ボールマーカー